Time;durP1;ratioP1;P1;durP2;ratioP2;P2;SDS_P1;SDS_P2;PMS_P1;PMS_P2;Temp;Humidity;BMP_temperature;BMP_pressure;BME280_temperature;BME280_humidity;BME280_pressure;Samples;Min_cycle;Max_cycle;Signal;HPM_P1;HPM_P2
2022/08/16 00:00:10;;;;;;;7.25;4.90;;;;;;;24.92;48.39;100696.66;4974457;28;20089;-86
2022/08/16 00:02:36;;;;;;;7.10;4.22;;;;;;;24.91;48.31;100697.06;4974189;28;20129;-84
2022/08/16 00:05:04;;;;;;;9.43;5.13;;;;;;;24.91;48.71;100697.88;4974575;28;20031;-85
2022/08/16 00:07:30;;;;;;;6.63;4.40;;;;;;;24.94;48.63;100695.44;4975643;28;20027;-83
2022/08/16 00:09:58;;;;;;;6.25;5.07;;;;;;;24.98;48.15;100701.81;4974299;28;20029;-85
2022/08/16 00:12:25;;;;;;;12.82;4.68;;;;;;;24.96;48.35;100691.03;4973464;28;20031;-83
2022/08/16 00:14:50;;;;;;;10.50;5.00;;;;;;;24.98;48.41;100691.41;4974110;28;20038;-84
2022/08/16 00:17:16;;;;;;;7.25;4.97;;;;;;;24.92;48.40;100691.06;4974052;28;20027;-85
2022/08/16 00:19:42;;;;;;;6.68;4.93;;;;;;;24.81;48.98;100684.78;4974860;28;20027;-85
2022/08/16 00:22:09;;;;;;;8.32;4.60;;;;;;;25.08;47.87;100684.97;4974150;28;20110;-84
2022/08/16 00:24:35;;;;;;;6.25;4.85;;;;;;;24.99;48.39;100686.63;4973879;28;20449;-83
2022/08/16 00:27:02;;;;;;;10.15;5.50;;;;;;;25.07;47.88;100688.19;4973658;28;20041;-84
2022/08/16 00:29:28;;;;;;;8.20;5.30;;;;;;;24.94;48.31;100689.84;4973665;28;20054;-84
2022/08/16 00:31:54;;;;;;;10.50;5.45;;;;;;;24.96;48.29;100695.84;4973863;28;20022;-84
2022/08/16 00:34:21;;;;;;;7.60;5.05;;;;;;;24.89;48.48;100700.28;4973989;28;20030;-84
2022/08/16 00:36:48;;;;;;;5.80;4.72;;;;;;;24.83;48.75;100696.34;4975088;28;20035;-84
2022/08/16 00:39:16;;;;;;;7.90;5.15;;;;;;;24.75;48.73;100697.59;4975020;28;20106;-84
2022/08/16 00:41:43;;;;;;;5.45;4.13;;;;;;;24.91;48.34;100689.47;4973139;28;20027;-85
2022/08/16 00:44:12;;;;;;;6.93;4.63;;;;;;;24.81;48.65;100698.75;4974967;28;20018;-86
2022/08/16 00:46:47;;;;;;;8.07;4.85;;;;;;;24.96;47.96;100695.84;4973610;28;20616;-84
2022/08/16 00:49:13;;;;;;;7.90;4.53;;;;;;;24.99;47.61;100693.00;4973765;28;20130;-85
2022/08/16 00:51:40;;;;;;;8.50;4.18;;;;;;;24.99;47.79;100692.22;4973651;28;20045;-87
2022/08/16 00:54:06;;;;;;;7.07;4.40;;;;;;;24.95;47.56;100692.25;4973866;28;20033;-85
2022/08/16 00:56:36;;;;;;;8.55;3.83;;;;;;;24.91;47.59;100680.31;4972988;28;20122;-86
2022/08/16 00:59:04;;;;;;;10.18;4.55;;;;;;;24.91;47.83;100683.09;4972626;28;20113;-85
2022/08/16 01:01:31;;;;;;;8.45;5.00;;;;;;;24.94;47.76;100687.06;4974764;28;20031;-86
2022/08/16 01:03:58;;;;;;;6.18;3.78;;;;;;;24.67;48.24;100681.31;4973377;28;20047;-84
2022/08/16 01:06:25;;;;;;;8.18;5.28;;;;;;;24.73;48.11;100679.66;4979134;28;20104;-84
2022/08/16 01:08:53;;;;;;;15.80;5.07;;;;;;;24.60;48.38;100682.16;4979587;28;20544;-84
2022/08/16 01:11:21;;;;;;;7.32;4.65;;;;;;;24.68;47.97;100688.47;4971473;28;20033;-83
2022/08/16 01:13:50;;;;;;;7.68;3.72;;;;;;;24.61;48.06;100690.09;4960290;28;20029;-84
2022/08/16 01:16:21;;;;;;;5.78;3.95;;;;;;;24.51;48.17;100679.03;4979082;28;20041;-84
2022/08/16 01:18:59;;;;;;;6.00;3.28;;;;;;;24.33;48.09;100688.31;4972208;28;20030;-83
2022/08/16 01:21:44;;;;;;;6.43;3.00;;;;;;;24.45;47.82;100700.22;4972595;28;20073;-87
2022/08/16 01:24:34;;;;;;;7.05;3.05;;;;;;;24.50;47.67;100700.56;4973475;28;20037;-86
2022/08/16 01:27:05;;;;;;;4.80;2.58;;;;;;;24.32;47.44;100700.66;4973136;28;20544;-87
2022/08/16 01:29:38;;;;;;;6.03;2.72;;;;;;;24.25;47.25;100700.66;4973356;28;20049;-87
2022/08/16 01:32:04;;;;;;;3.85;2.75;;;;;;;24.34;47.22;100697.50;4973317;28;20027;-85
2022/08/16 01:34:30;;;;;;;6.38;3.03;;;;;;;24.39;47.08;100699.84;4973292;28;20501;-87
2022/08/16 01:36:58;;;;;;;5.35;2.58;;;;;;;24.27;47.26;100697.50;4972551;28;20027;-84
2022/08/16 01:39:24;;;;;;;7.88;2.70;;;;;;;24.32;47.04;100702.63;4971743;28;20022;-84
2022/08/16 01:41:49;;;;;;;5.70;2.53;;;;;;;24.09;47.67;100692.78;4972758;28;20023;-86
2022/08/16 01:44:15;;;;;;;9.25;3.30;;;;;;;24.18;47.28;100700.75;4971562;28;20258;-85
2022/08/16 01:46:44;;;;;;;4.70;2.72;;;;;;;24.11;47.20;100700.78;4971604;28;20055;-85
2022/08/16 01:49:18;;;;;;;4.72;2.90;;;;;;;23.96;48.05;100690.88;4972709;28;20026;-85
2022/08/16 01:51:49;;;;;;;6.32;2.95;;;;;;;24.02;47.49;100700.41;4972889;28;20433;-85
2022/08/16 01:54:15;;;;;;;4.32;2.72;;;;;;;23.82;48.04;100691.72;4972716;28;20031;-85
2022/08/16 01:56:40;;;;;;;5.18;2.78;;;;;;;23.94;47.67;100696.84;4972329;28;20119;-85
2022/08/16 01:59:12;;;;;;;5.55;3.15;;;;;;;23.75;47.91;100698.13;4972725;28;20392;-85
2022/08/16 02:01:37;;;;;;;5.88;2.97;;;;;;;23.89;47.69;100707.66;4972807;28;20044;-84
2022/08/16 02:04:04;;;;;;;6.53;2.95;;;;;;;23.82;47.91;100707.69;4972926;28;20155;-85
2022/08/16 02:06:30;;;;;;;8.45;3.45;;;;;;;23.83;47.69;100709.25;4972692;28;20061;-86
2022/08/16 02:08:56;;;;;;;8.77;3.58;;;;;;;23.75;48.10;100711.28;4972798;28;20031;-85
2022/08/16 02:11:23;;;;;;;7.72;3.75;;;;;;;23.73;48.48;100708.09;4975145;28;20027;-84
2022/08/16 02:13:49;;;;;;;7.13;3.72;;;;;;;23.75;48.25;100714.88;4977612;28;20073;-86
2022/08/16 02:16:15;;;;;;;5.80;2.80;;;;;;;23.77;48.34;100718.03;4976454;28;20118;-84
2022/08/16 02:18:41;;;;;;;7.25;3.55;;;;;;;23.87;47.96;100718.41;4976275;28;20026;-84
2022/08/16 02:21:08;;;;;;;7.65;3.10;;;;;;;23.85;47.77;100723.59;4976231;28;20053;-85
2022/08/16 02:23:36;;;;;;;10.27;3.78;;;;;;;23.79;48.10;100723.22;4976317;28;20065;-84
2022/08/16 02:26:02;;;;;;;6.22;3.78;;;;;;;23.82;48.30;100724.41;4975666;28;20062;-84
2022/08/16 02:28:28;;;;;;;5.07;3.90;;;;;;;23.72;48.57;100721.22;4977203;28;20027;-85
2022/08/16 02:30:55;;;;;;;5.25;3.78;;;;;;;23.91;48.39;100721.97;4977182;28;20047;-84
2022/08/16 02:33:22;;;;;;;6.18;3.20;;;;;;;23.88;48.14;100717.19;4977315;28;20504;-84
2022/08/16 02:35:48;;;;;;;5.63;3.17;;;;;;;24.02;47.52;100719.94;4976092;28;20023;-85
2022/08/16 02:38:14;;;;;;;4.20;2.90;;;;;;;23.85;48.38;100716.00;4977121;28;20102;-84
2022/08/16 02:40:40;;;;;;;6.57;2.90;;;;;;;23.89;47.83;100719.59;4975151;28;20113;-84
2022/08/16 02:43:06;;;;;;;4.95;2.78;;;;;;;23.96;47.50;100732.75;4975853;28;20448;-84
2022/08/16 02:45:32;;;;;;;3.90;2.45;;;;;;;23.79;47.89;100726.78;4975766;28;20031;-83
2022/08/16 02:47:58;;;;;;;3.97;2.40;;;;;;;23.82;47.63;100724.41;4975636;28;20508;-84
2022/08/16 02:50:25;;;;;;;6.70;2.50;;;;;;;23.78;47.82;100722.41;4975734;28;20031;-84
2022/08/16 02:52:50;;;;;;;3.17;2.40;;;;;;;23.79;47.44;100726.78;4975959;28;20019;-84
2022/08/16 02:55:17;;;;;;;6.22;2.83;;;;;;;23.76;47.89;100729.59;4975253;28;20034;-85
2022/08/16 02:57:43;;;;;;;5.07;2.45;;;;;;;23.77;47.93;100731.19;4975462;28;20231;-84
2022/08/16 03:00:12;;;;;;;5.35;2.40;;;;;;;23.70;47.57;100731.22;4976803;28;20033;-84
2022/08/16 03:02:39;;;;;;;6.35;3.30;;;;;;;23.56;48.46;100732.00;4976752;28;20031;-84
2022/08/16 03:05:07;;;;;;;5.10;2.13;;;;;;;23.52;48.38;100731.22;4975337;28;20062;-85
2022/08/16 03:07:33;;;;;;;6.57;2.20;;;;;;;23.49;48.57;100729.22;4975403;28;20066;-85
2022/08/16 03:09:59;;;;;;;7.82;2.70;;;;;;;23.38;48.60;100722.88;4975399;28;20061;-86
2022/08/16 03:12:25;;;;;;;4.40;2.10;;;;;;;23.31;48.54;100728.47;4975034;28;20085;-84
2022/08/16 03:14:50;;;;;;;5.43;1.70;;;;;;;23.28;48.51;100726.50;4975161;28;20034;-83
2022/08/16 03:17:16;;;;;;;7.25;1.92;;;;;;;23.43;48.31;100730.84;4977215;28;20540;-85
2022/08/16 03:19:42;;;;;;;3.28;1.60;;;;;;;23.37;48.12;100732.44;4976349;28;20038;-86
2022/08/16 03:22:08;;;;;;;7.78;2.80;;;;;;;23.52;47.74;100739.59;4973896;28;20035;-85
2022/08/16 03:24:34;;;;;;;4.18;2.22;;;;;;;23.28;48.10;100732.88;4975505;28;20035;-86
2022/08/16 03:27:01;;;;;;;4.63;1.90;;;;;;;23.23;48.10;100724.91;4975795;28;20090;-85
2022/08/16 03:29:32;;;;;;;4.63;2.20;;;;;;;23.04;48.26;100728.88;4974637;28;20584;-86
2022/08/16 03:31:58;;;;;;;6.20;2.72;;;;;;;23.25;48.09;100730.88;4976180;28;20019;-86
2022/08/16 03:34:24;;;;;;;7.00;2.35;;;;;;;23.18;48.00;100737.22;4976056;28;20114;-86
2022/08/16 03:36:49;;;;;;;4.53;2.10;;;;;;;23.26;48.14;100747.19;4975972;28;20525;-85
2022/08/16 03:39:15;;;;;;;3.85;2.20;;;;;;;23.11;48.22;100742.00;4975942;28;20109;-85
2022/08/16 03:41:41;;;;;;;3.75;2.17;;;;;;;22.98;48.66;100741.63;4975455;28;20030;-87
2022/08/16 03:44:06;;;;;;;7.85;2.92;;;;;;;23.22;47.96;100729.69;4974851;28;20118;-86
2022/08/16 03:46:35;;;;;;;4.53;1.98;;;;;;;23.15;48.29;100731.69;4974703;28;20038;-86
2022/08/16 03:49:02;;;;;;;5.32;2.28;;;;;;;23.04;48.38;100744.78;4976021;28;20085;-86
2022/08/16 03:51:28;;;;;;;5.75;2.97;;;;;;;23.00;48.31;100744.00;4974518;28;20030;-86
2022/08/16 03:53:53;;;;;;;6.93;2.80;;;;;;;23.08;48.28;100745.59;4974527;28;20026;-86
2022/08/16 03:56:19;;;;;;;6.32;2.13;;;;;;;23.05;48.31;100743.59;4975291;28;20022;-85
2022/08/16 03:58:45;;;;;;;7.70;3.00;;;;;;;22.84;48.56;100741.59;4975738;28;20029;-85
2022/08/16 04:01:10;;;;;;;7.82;2.47;;;;;;;22.88;48.36;100750.75;4974494;28;20034;-86
2022/08/16 04:03:36;;;;;;;5.70;2.20;;;;;;;22.69;48.96;100752.72;4974341;28;20023;-85
2022/08/16 04:06:02;;;;;;;7.75;2.80;;;;;;;22.88;48.62;100751.56;4974332;28;20035;-85
2022/08/16 04:08:30;;;;;;;8.27;3.28;;;;;;;22.85;48.65;100751.53;4975635;28;20445;-86
2022/08/16 04:10:56;;;;;;;7.80;2.13;;;;;;;22.84;48.58;100759.09;4973746;28;20470;-86
2022/08/16 04:13:22;;;;;;;6.20;2.30;;;;;;;22.62;49.02;100757.47;4974200;28;20027;-86
2022/08/16 04:15:48;;;;;;;8.43;2.40;;;;;;;22.65;48.80;100757.47;4974201;28;20385;-86
2022/08/16 04:18:15;;;;;;;6.88;2.75;;;;;;;22.53;49.16;100757.84;4974006;28;20054;-86
2022/08/16 04:20:40;;;;;;;8.82;3.25;;;;;;;22.54;49.02;100762.22;4974168;28;20086;-86
2022/08/16 04:23:07;;;;;;;5.63;2.30;;;;;;;22.48;49.24;100763.78;4974068;28;20027;-86
2022/08/16 04:25:34;;;;;;;7.80;3.00;;;;;;;22.61;48.67;100767.81;4973266;28;20050;-86
2022/08/16 04:28:00;;;;;;;11.35;3.22;;;;;;;22.45;49.34;100767.38;4973941;28;20031;-85
2022/08/16 04:30:26;;;;;;;8.68;2.65;;;;;;;22.57;48.78;100764.22;4974963;28;20051;-86
2022/08/16 04:32:52;;;;;;;6.32;2.30;;;;;;;22.59;48.88;100767.38;4973502;28;20031;-84
2022/08/16 04:35:22;;;;;;;9.13;3.22;;;;;;;22.64;48.62;100778.16;4973848;28;20090;-86
2022/08/16 04:37:48;;;;;;;6.78;2.85;;;;;;;22.56;48.61;100778.53;4973687;28;20445;-86
2022/08/16 04:40:15;;;;;;;9.52;2.83;;;;;;;22.70;48.38;100771.00;4974351;28;20035;-85
2022/08/16 04:42:41;;;;;;;9.77;2.55;;;;;;;22.73;48.23;100768.63;4973695;28;20085;-86
2022/08/16 04:45:10;;;;;;;5.50;2.65;;;;;;;22.74;48.07;100787.72;4973635;28;20026;-86
2022/08/16 04:47:36;;;;;;;8.45;2.60;;;;;;;22.74;48.35;100789.69;4973640;28;20142;-85
2022/08/16 04:50:13;;;;;;;9.95;3.22;;;;;;;22.55;48.56;100788.06;4973579;28;20058;-86
2022/08/16 04:52:39;;;;;;;7.22;2.45;;;;;;;22.64;48.23;100789.28;4973638;28;20512;-85
2022/08/16 04:55:12;;;;;;;7.47;2.60;;;;;;;22.58;48.68;100784.50;4972990;28;20027;-86
2022/08/16 04:57:38;;;;;;;6.90;2.40;;;;;;;22.61;48.43;100798.44;4973427;28;20022;-86
2022/08/16 05:00:10;;;;;;;11.38;3.13;;;;;;;22.57;48.60;100796.81;4973424;28;20027;-86
2022/08/16 05:02:37;;;;;;;3.72;2.10;;;;;;;22.40;48.75;100801.16;4973322;28;20057;-85
2022/08/16 05:05:03;;;;;;;5.50;1.90;;;;;;;22.68;47.82;100801.25;4973238;28;20038;-85
2022/08/16 05:07:29;;;;;;;8.63;2.10;;;;;;;22.76;47.90;100799.28;4973293;28;20393;-86
2022/08/16 05:09:54;;;;;;;5.43;2.13;;;;;;;22.84;47.60;100803.66;4972675;28;20473;-85
2022/08/16 05:12:20;;;;;;;8.38;2.55;;;;;;;22.70;47.60;100804.44;4974325;28;20394;-86
2022/08/16 05:14:45;;;;;;;8.02;2.35;;;;;;;22.65;48.08;100810.38;4973232;28;20121;-86
2022/08/16 05:17:11;;;;;;;7.20;2.20;;;;;;;22.55;48.10;100811.16;4973163;28;20375;-86
2022/08/16 05:19:37;;;;;;;5.95;1.88;;;;;;;22.49;48.21;100814.69;4974386;28;20457;-85
2022/08/16 05:22:02;;;;;;;4.20;1.90;;;;;;;22.59;48.23;100825.88;4973327;28;20035;-84
2022/08/16 05:24:28;;;;;;;7.22;2.70;;;;;;;22.44;48.29;100824.22;4972569;28;20062;-85
2022/08/16 05:26:53;;;;;;;9.90;3.03;;;;;;;22.46;48.17;100823.84;4972733;28;20125;-86
2022/08/16 05:29:19;;;;;;;13.82;2.55;;;;;;;22.35;48.16;100816.22;4974043;28;20087;-85
2022/08/16 05:31:45;;;;;;;9.98;2.35;;;;;;;22.39;48.11;100816.25;4973040;28;20022;-85
2022/08/16 05:34:10;;;;;;;9.95;2.50;;;;;;;22.37;47.80;100816.66;4974473;28;20031;-85
2022/08/16 05:36:36;;;;;;;7.57;2.92;;;;;;;22.44;47.70;100818.66;4972822;28;20031;-85
2022/08/16 05:39:07;;;;;;;5.13;2.10;;;;;;;22.41;47.81;100830.59;4973992;28;20023;-85
2022/08/16 05:41:32;;;;;;;4.63;2.00;;;;;;;22.40;47.61;100821.44;4973243;28;20026;-86
2022/08/16 05:44:00;;;;;;;8.73;2.33;;;;;;;22.51;47.35;100824.25;4972843;28;20035;-85
2022/08/16 05:46:26;;;;;;;7.60;2.50;;;;;;;22.42;47.67;100834.97;4975648;28;20093;-86
2022/08/16 05:48:52;;;;;;;7.25;2.17;;;;;;;22.43;47.53;100831.78;4976893;28;20034;-85
2022/08/16 05:51:18;;;;;;;6.85;2.58;;;;;;;22.35;47.81;100823.78;4976715;28;20034;-85
2022/08/16 05:53:44;;;;;;;6.07;2.03;;;;;;;22.44;47.44;100827.00;4978040;28;20023;-85
2022/08/16 05:56:10;;;;;;;8.73;2.45;;;;;;;22.41;47.45;100825.81;4977478;28;20109;-85
2022/08/16 05:58:36;;;;;;;6.60;2.05;;;;;;;22.46;47.36;100833.00;4978012;28;20033;-85
2022/08/16 06:01:03;;;;;;;7.22;2.00;;;;;;;22.59;47.09;100830.63;4976501;28;20023;-85
2022/08/16 06:03:29;;;;;;;7.10;2.42;;;;;;;22.42;47.25;100832.16;4976612;28;20077;-86
2022/08/16 06:05:54;;;;;;;5.03;1.98;;;;;;;22.78;46.36;100837.88;4976364;28;20481;-85
2022/08/16 06:08:20;;;;;;;7.85;1.90;;;;;;;22.63;46.70;100831.47;4976707;28;20118;-85
2022/08/16 06:10:46;;;;;;;10.02;2.15;;;;;;;22.59;46.85;100848.16;4976040;28;20027;-87
2022/08/16 06:13:11;;;;;;;7.93;2.28;;;;;;;22.63;46.48;100837.03;4976514;28;20026;-85
2022/08/16 06:15:37;;;;;;;4.25;1.80;;;;;;;22.61;46.50;100839.41;4977625;28;20049;-85
2022/08/16 06:18:03;;;;;;;5.72;2.20;;;;;;;22.52;46.71;100842.56;4976516;28;20037;-86
2022/08/16 06:20:29;;;;;;;3.83;1.90;;;;;;;22.55;46.47;100844.56;4976273;28;20026;-87
2022/08/16 06:22:56;;;;;;;6.70;2.28;;;;;;;22.57;46.40;100850.53;4976356;28;20065;-87
2022/08/16 06:25:24;;;;;;;9.05;2.38;;;;;;;22.48;46.57;100846.53;4975641;28;20097;-86
2022/08/16 06:27:50;;;;;;;6.15;2.03;;;;;;;22.46;46.77;100849.69;4976075;28;20039;-87
2022/08/16 06:30:16;;;;;;;9.98;1.98;;;;;;;22.61;46.16;100847.78;4975528;28;20146;-86
2022/08/16 06:32:42;;;;;;;8.05;2.58;;;;;;;22.45;46.61;100848.09;4976120;28;20114;-86
2022/08/16 06:35:08;;;;;;;5.90;2.15;;;;;;;22.61;46.32;100865.28;4976023;28;20034;-86
2022/08/16 06:37:34;;;;;;;4.43;2.13;;;;;;;22.79;45.87;100867.31;4975945;28;20023;-86
2022/08/16 06:40:00;;;;;;;5.60;2.20;;;;;;;23.01;45.51;100859.84;4975445;28;20027;-85
2022/08/16 06:42:25;;;;;;;7.32;2.72;;;;;;;22.82;45.78;100859.00;4977223;28;20027;-86
2022/08/16 06:44:51;;;;;;;9.07;2.13;;;;;;;22.79;45.94;100870.91;4975854;28;20027;-85
2022/08/16 06:47:17;;;;;;;3.38;2.03;;;;;;;22.89;45.42;100863.78;4975808;28;20026;-85
2022/08/16 06:49:42;;;;;;;7.30;2.20;;;;;;;22.67;45.61;100877.63;4975860;28;20027;-85
2022/08/16 06:52:08;;;;;;;4.00;1.50;;;;;;;23.06;45.16;100865.84;4975830;28;20027;-87
2022/08/16 06:54:34;;;;;;;8.05;2.42;;;;;;;23.09;44.93;100873.41;4976483;28;20050;-86
2022/08/16 06:57:00;;;;;;;9.75;3.13;;;;;;;23.19;44.94;100874.59;4975917;28;20512;-86
2022/08/16 06:59:26;;;;;;;13.18;2.45;;;;;;;23.18;45.08;100873.81;4977119;28;20031;-85
2022/08/16 07:01:52;;;;;;;5.80;1.77;;;;;;;23.44;44.31;100874.66;4975327;28;20390;-86
2022/08/16 07:04:17;;;;;;;3.70;1.58;;;;;;;23.49;44.33;100880.59;4975326;28;20082;-87
2022/08/16 07:06:43;;;;;;;4.28;1.95;;;;;;;23.58;44.32;100885.00;4975348;28;20096;-86
2022/08/16 07:09:13;;;;;;;3.65;1.83;;;;;;;23.65;43.88;100885.03;4975004;28;20026;-87
2022/08/16 07:11:39;;;;;;;;;;;;;;;23.51;43.43;100885.81;4976116;28;20022;-86
2022/08/16 07:14:05;;;;;;;4.00;1.67;;;;;;;23.69;43.68;100891.41;4975249;28;19914;-85
2022/08/16 07:16:31;;;;;;;6.32;1.80;;;;;;;23.53;43.38;100891.78;4976602;28;20105;-85
2022/08/16 07:18:58;;;;;;;4.35;1.73;;;;;;;23.45;43.90;100899.34;4975492;28;20541;-85
2022/08/16 07:21:24;;;;;;;4.50;1.65;;;;;;;23.65;43.00;100893.38;4975070;28;20029;-85
2022/08/16 07:23:50;;;;;;;3.95;2.08;;;;;;;23.54;43.53;100891.38;4974942;28;20070;-86
2022/08/16 07:26:24;;;;;;;5.43;1.95;;;;;;;23.70;42.83;100904.16;4975196;28;20076;-87
2022/08/16 07:28:51;;;;;;;6.70;1.98;;;;;;;23.61;42.75;100896.19;4975284;28;20561;-86
2022/08/16 07:31:17;;;;;;;11.93;2.83;;;;;;;23.43;43.10;100903.72;4974972;28;20126;-88
2022/08/16 07:33:43;;;;;;;9.35;1.67;;;;;;;23.61;42.95;100896.19;4975883;28;20089;-87
2022/08/16 07:36:12;;;;;;;4.93;1.70;;;;;;;23.67;42.64;100900.19;4974971;28;20023;-85
2022/08/16 07:38:38;;;;;;;12.70;2.85;;;;;;;23.72;42.50;100898.97;4974886;28;20586;-86
2022/08/16 07:41:04;;;;;;;6.65;1.98;;;;;;;23.79;42.38;100902.56;4975112;28;20042;-86
2022/08/16 07:43:31;;;;;;;11.00;2.42;;;;;;;23.89;42.24;100902.97;4975019;28;20050;-87
2022/08/16 07:45:57;;;;;;;3.20;1.50;;;;;;;23.74;42.31;100900.19;4975102;28;20037;-86
2022/08/16 07:48:23;;;;;;;4.30;1.42;;;;;;;23.87;41.97;100902.56;4975003;28;20030;-86
2022/08/16 07:50:48;;;;;;;3.63;1.65;;;;;;;23.93;41.78;100900.97;4976108;28;20052;-87
2022/08/16 07:53:14;;;;;;;4.50;1.38;;;;;;;23.72;42.32;100908.13;4974279;28;20022;-85
2022/08/16 07:55:40;;;;;;;6.22;2.05;;;;;;;23.73;42.28;100909.75;4975198;28;20022;-85
2022/08/16 07:58:06;;;;;;;8.02;2.00;;;;;;;23.74;42.08;100908.56;4974688;28;20027;-85
2022/08/16 08:00:32;;;;;;;3.72;1.63;;;;;;;23.57;42.60;100917.66;4975000;28;20440;-86
2022/08/16 08:02:59;;;;;;;4.25;1.70;;;;;;;23.70;42.33;100916.13;4975356;28;20478;-88
2022/08/16 08:05:25;;;;;;;5.13;2.30;;;;;;;23.70;42.00;100927.28;4980136;28;20389;-86
2022/08/16 08:07:52;;;;;;;7.88;2.95;;;;;;;23.61;42.16;100924.09;4982173;28;20073;-87
2022/08/16 08:10:18;;;;;;;8.73;2.58;;;;;;;23.58;42.43;100918.47;4977812;28;20031;-88
2022/08/16 08:12:47;;;;;;;5.15;1.52;;;;;;;23.66;42.04;100918.13;4983007;28;20504;-88
2022/08/16 08:15:13;;;;;;;2.58;1.83;;;;;;;23.57;42.01;100920.44;4994194;28;20081;-88
2022/08/16 08:17:39;;;;;;;8.13;2.60;;;;;;;23.68;41.96;100917.72;4993991;28;20046;-87
2022/08/16 08:20:08;;;;;;;6.57;1.92;;;;;;;23.65;42.12;100918.50;5010031;28;20523;-85
2022/08/16 08:22:34;;;;;;;8.50;1.60;;;;;;;23.50;42.21;100926.84;4993343;28;20031;-85
2022/08/16 08:24:59;;;;;;;4.68;1.88;;;;;;;23.48;42.29;100942.38;4992816;28;20582;-85
2022/08/16 08:27:26;;;;;;;7.18;1.95;;;;;;;23.62;42.04;100928.47;4994592;28;20041;-85
2022/08/16 08:29:52;;;;;;;9.13;2.38;;;;;;;23.90;41.82;100924.09;4993153;28;20089;-85
2022/08/16 08:32:20;;;;;;;4.82;2.08;;;;;;;24.01;41.67;100936.03;5009736;28;20510;-86
2022/08/16 08:34:46;;;;;;;6.38;1.88;;;;;;;23.99;41.97;100930.84;4993392;28;20401;-85
2022/08/16 08:37:12;;;;;;;8.60;2.25;;;;;;;24.00;41.88;100931.66;4993126;28;20022;-85
2022/08/16 08:39:38;;;;;;;3.33;1.80;;;;;;;24.20;41.53;100929.25;4993919;28;20028;-84
2022/08/16 08:42:04;;;;;;;7.97;1.85;;;;;;;24.23;41.35;100937.59;4993170;28;20177;-85
2022/08/16 08:44:30;;;;;;;9.13;1.98;;;;;;;24.49;41.09;100927.22;4994691;28;20026;-86
2022/08/16 08:46:58;;;;;;;5.28;1.80;;;;;;;24.40;41.05;100940.78;4993489;28;20125;-85
2022/08/16 08:49:23;;;;;;;6.55;2.00;;;;;;;24.50;41.05;100928.81;5009671;28;20650;-87
2022/08/16 08:51:49;;;;;;;4.00;1.52;;;;;;;24.51;40.65;100942.38;4993443;28;20080;-87
2022/08/16 08:54:15;;;;;;;7.28;3.17;;;;;;;24.67;41.07;100955.09;4992982;28;20492;-87
2022/08/16 08:56:41;;;;;;;5.22;2.50;;;;;;;24.90;40.58;100947.00;4983086;28;20034;-88
2022/08/16 08:59:07;;;;;;;4.40;1.63;;;;;;;24.93;40.77;100948.97;4988630;28;20031;-86
2022/08/16 09:01:35;;;;;;;2.72;1.73;;;;;;;25.04;40.42;100957.38;4983591;28;20030;-86
2022/08/16 09:04:02;;;;;;;5.00;1.70;;;;;;;25.07;40.42;100957.34;4982447;28;20029;-86
2022/08/16 09:06:31;;;;;;;8.20;2.47;;;;;;;25.12;40.09;100958.94;4991474;28;20030;-85
2022/08/16 09:08:58;;;;;;;5.63;1.90;;;;;;;25.06;40.11;100961.34;4992578;28;20041;-89
2022/08/16 09:11:24;;;;;;;7.60;2.67;;;;;;;25.21;40.02;100962.06;4993533;28;20050;-86
2022/08/16 09:13:50;;;;;;;8.98;2.15;;;;;;;25.29;39.56;100972.00;4994449;28;20135;-88
2022/08/16 09:16:16;;;;;;;3.65;1.58;;;;;;;25.23;39.60;100968.03;4994297;28;20080;-86
2022/08/16 09:18:43;;;;;;;7.32;2.13;;;;;;;25.07;40.01;100968.53;4993471;28;20109;-89
2022/08/16 09:21:08;;;;;;;7.18;2.13;;;;;;;25.14;39.39;100974.06;4993275;28;20022;-87
2022/08/16 09:23:34;;;;;;;6.35;1.55;;;;;;;24.91;39.58;100970.97;4992778;28;20022;-91
2022/08/16 09:26:01;;;;;;;8.88;2.72;;;;;;;25.15;39.23;100969.28;4994157;28;20030;-86
2022/08/16 09:28:27;;;;;;;5.15;1.65;;;;;;;25.05;39.74;100973.72;4992585;28;20041;-86
2022/08/16 09:30:54;;;;;;;5.50;1.88;;;;;;;25.24;39.59;100968.84;4992384;28;20050;-85
2022/08/16 09:33:19;;;;;;;7.95;2.03;;;;;;;24.96;39.88;100972.56;4993072;28;20485;-85
2022/08/16 09:35:46;;;;;;;3.58;1.75;;;;;;;25.14;39.99;100976.06;4992946;28;20030;-86
2022/08/16 09:38:12;;;;;;;5.78;1.88;;;;;;;25.08;39.83;100991.69;4992482;28;20027;-85
2022/08/16 09:40:42;;;;;;;8.00;1.70;;;;;;;25.17;39.92;100986.47;4993774;28;20134;-85
2022/08/16 09:43:08;;;;;;;;;;;;;;;25.14;39.88;100998.44;4993537;28;20085;-86
2022/08/16 09:45:37;;;;;;;6.22;1.90;;;;;;;25.17;40.06;100997.66;4992353;28;19913;-85
2022/08/16 09:48:06;;;;;;;4.88;1.70;;;;;;;25.37;39.41;101000.72;4992789;28;20030;-85
2022/08/16 09:50:33;;;;;;;4.07;1.48;;;;;;;25.41;39.55;100998.72;4992613;28;20034;-83
2022/08/16 09:52:59;;;;;;;8.07;2.30;;;;;;;25.42;39.63;100994.72;4991714;28;20057;-86
2022/08/16 09:55:25;;;;;;;6.20;2.25;;;;;;;25.52;39.45;100999.44;4993318;28;20118;-84
2022/08/16 09:57:50;;;;;;;3.83;1.83;;;;;;;25.59;38.98;101004.19;4992108;28;20378;-84
2022/08/16 10:00:16;;;;;;;4.93;1.38;;;;;;;25.44;39.05;100998.69;4991911;28;20030;-85
2022/08/16 10:02:42;;;;;;;4.28;2.20;;;;;;;25.25;39.18;100999.22;4991906;28;20504;-84
2022/08/16 10:05:10;;;;;;;4.60;1.75;;;;;;;25.31;39.15;101000.34;4991825;28;20029;-89
2022/08/16 10:07:36;;;;;;;3.53;1.85;;;;;;;25.37;39.08;101004.31;5007771;28;20066;-87
2022/08/16 10:10:02;;;;;;;5.07;1.55;;;;;;;25.25;39.21;101004.00;4993465;28;20113;-87
2022/08/16 10:15:16;;;;;;;4.85;1.42;;;;;;;25.18;39.27;101007.63;4994064;28;20114;-88
2022/08/16 10:17:44;;;;;;;5.20;1.73;;;;;;;25.52;38.31;101010.63;5009157;28;20108;-86
2022/08/16 10:20:10;;;;;;;4.35;2.10;;;;;;;25.41;38.79;101019.09;4992328;28;20421;-84
2022/08/16 10:22:37;;;;;;;2.90;1.27;;;;;;;25.53;38.04;101017.81;4993037;28;20085;-84
2022/08/16 10:25:04;;;;;;;6.25;1.52;;;;;;;25.40;38.62;101008.31;4991677;28;20043;-86
2022/08/16 10:27:30;;;;;;;3.40;1.42;;;;;;;25.32;38.17;101003.97;4993464;28;20419;-84
2022/08/16 10:29:56;;;;;;;4.55;1.80;;;;;;;25.18;38.35;101021.59;4991861;28;20045;-83
2022/08/16 10:32:21;;;;;;;6.35;1.98;;;;;;;25.22;38.30;101018.78;4994228;28;20084;-86
2022/08/16 10:34:47;;;;;;;5.70;2.00;;;;;;;25.26;38.29;101014.78;5010380;28;20030;-85
2022/08/16 10:37:12;;;;;;;4.63;1.55;;;;;;;25.22;38.07;101019.56;5010146;28;20156;-84
2022/08/16 10:39:40;;;;;;;6.88;1.58;;;;;;;25.30;38.29;101031.53;5010772;28;20397;-85
2022/08/16 10:42:06;;;;;;;3.42;1.75;;;;;;;25.18;38.42;101028.00;4995760;28;20014;-85
2022/08/16 10:44:32;;;;;;;5.18;2.22;;;;;;;25.27;38.14;101027.56;4995271;28;20054;-85
2022/08/16 10:46:57;;;;;;;5.35;1.83;;;;;;;25.37;38.29;101015.50;4993505;28;20034;-85
2022/08/16 10:49:23;;;;;;;4.03;1.73;;;;;;;25.40;38.26;101017.50;4992692;28;20030;-85
2022/08/16 10:51:48;;;;;;;7.22;1.88;;;;;;;25.45;37.99;101016.25;4992525;28;20022;-85
2022/08/16 10:54:14;;;;;;;6.63;2.28;;;;;;;25.55;37.74;101015.44;4990665;28;20046;-85
2022/08/16 10:56:40;;;;;;;3.28;1.40;;;;;;;25.49;38.04;101027.44;4991339;28;20026;-85
2022/08/16 10:59:06;;;;;;;5.55;1.80;;;;;;;25.64;37.71;101026.97;4971226;28;20093;-86
2022/08/16 11:01:31;;;;;;;4.85;2.45;;;;;;;25.56;37.96;101027.41;4973239;28;20031;-86
2022/08/16 11:03:57;;;;;;;7.25;1.95;;;;;;;25.71;37.84;101031.72;4975262;28;20030;-85
2022/08/16 11:06:23;;;;;;;4.97;2.47;;;;;;;25.68;38.04;101035.31;4974395;28;20061;-86
2022/08/16 11:08:48;;;;;;;5.85;1.83;;;;;;;25.57;38.49;101029.78;4974888;28;20413;-86
2022/08/16 11:11:14;;;;;;;5.75;1.63;;;;;;;25.36;38.43;101024.31;4975147;28;20042;-85
2022/08/16 11:13:41;;;;;;;3.72;2.00;;;;;;;25.58;37.68;101036.19;4976350;28;20023;-85
2022/08/16 11:16:08;;;;;;;6.55;1.75;;;;;;;25.64;37.81;101040.16;4975371;28;20377;-86
2022/08/16 11:18:34;;;;;;;6.35;1.88;;;;;;;25.65;38.07;101041.75;4975098;28;20412;-85
2022/08/16 11:21:00;;;;;;;4.75;1.83;;;;;;;25.78;37.67;101045.69;4975368;28;20027;-86
2022/08/16 11:23:27;;;;;;;6.90;2.40;;;;;;;25.87;38.00;101040.44;4974338;28;20038;-85